createdAt,value
2023-03-17T00:02:05.598Z,3.07
2023-03-17T00:04:33.393Z,3.00
2023-03-17T00:07:03.284Z,2.30
2023-03-17T00:09:30.118Z,3.50
2023-03-17T00:11:56.996Z,3.23
2023-03-17T00:14:24.312Z,2.80
2023-03-17T00:16:53.713Z,3.10
2023-03-17T00:19:33.664Z,3.37
2023-03-17T00:22:02.804Z,3.13
2023-03-17T00:24:30.146Z,3.60
2023-03-17T00:26:59.645Z,3.63
2023-03-17T00:29:26.797Z,2.90
2023-03-17T00:31:55.304Z,3.10
2023-03-17T00:34:22.264Z,3.43
2023-03-17T00:36:51.144Z,4.30
2023-03-17T00:39:18.606Z,3.70
2023-03-17T00:41:49.024Z,3.00
2023-03-17T00:44:15.910Z,3.10
2023-03-17T00:46:42.809Z,2.87
2023-03-17T00:49:21.080Z,3.20
2023-03-17T00:51:48.711Z,3.60
2023-03-17T00:54:19.478Z,3.70
2023-03-17T00:56:48.075Z,3.23
2023-03-17T00:59:28.100Z,3.33
2023-03-17T01:01:56.146Z,3.27
2023-03-17T01:04:23.937Z,3.30
2023-03-17T01:06:59.247Z,2.97
2023-03-17T01:09:27.718Z,3.23
2023-03-17T01:11:55.868Z,3.10
2023-03-17T01:14:26.026Z,3.17
2023-03-17T01:16:55.142Z,3.47
2023-03-17T01:19:22.343Z,4.00
2023-03-17T01:21:49.241Z,3.40
2023-03-17T01:24:18.672Z,2.87
2023-03-17T01:26:45.885Z,3.20
2023-03-17T01:29:13.771Z,2.83
2023-03-17T01:31:41.154Z,3.10
2023-03-17T01:34:08.056Z,3.43
2023-03-17T01:36:35.631Z,3.33
2023-03-17T01:39:05.217Z,4.30
2023-03-17T01:41:40.133Z,3.23
2023-03-17T01:44:14.465Z,3.90
2023-03-17T01:46:45.375Z,3.77
2023-03-17T01:49:27.206Z,3.77
2023-03-17T01:51:58.946Z,3.20
2023-03-17T01:54:34.997Z,3.30
2023-03-17T01:57:46.948Z,3.50
2023-03-17T02:00:20.141Z,4.10
2023-03-17T02:02:58.184Z,3.43
2023-03-17T02:05:29.905Z,3.33
2023-03-17T02:07:59.075Z,3.00
2023-03-17T02:10:30.473Z,3.20
2023-03-17T02:13:03.823Z,3.50
2023-03-17T02:15:52.189Z,2.70
2023-03-17T02:18:21.807Z,3.40
2023-03-17T02:20:48.577Z,3.80
2023-03-17T02:23:24.773Z,3.43
2023-03-17T02:25:53.902Z,3.83
2023-03-17T02:28:28.324Z,3.80
2023-03-17T02:30:55.307Z,3.07
2023-03-17T02:33:24.330Z,3.90
2023-03-17T02:35:53.697Z,3.80
2023-03-17T02:38:20.692Z,4.10
2023-03-17T02:40:50.233Z,3.83
2023-03-17T02:43:17.488Z,3.67
2023-03-17T02:45:44.398Z,4.07
2023-03-17T02:48:11.966Z,4.23
2023-03-17T02:50:41.465Z,3.70
2023-03-17T02:53:13.036Z,4.27
2023-03-17T02:55:43.657Z,3.83
2023-03-17T02:58:10.581Z,3.40
2023-03-17T03:00:38.804Z,4.20
2023-03-17T03:03:07.884Z,3.90
2023-03-17T03:05:35.374Z,3.70
2023-03-17T03:08:05.246Z,3.73
2023-03-17T03:10:32.675Z,4.00
2023-03-17T03:12:59.645Z,4.20
2023-03-17T03:15:31.071Z,4.23
2023-03-17T03:17:57.970Z,4.30
2023-03-17T03:20:27.959Z,3.57
2023-03-17T03:22:57.482Z,3.83
2023-03-17T03:25:24.312Z,3.73
2023-03-17T03:27:51.626Z,3.57
2023-03-17T03:30:19.256Z,4.37
2023-03-17T03:32:48.395Z,4.00
2023-03-17T03:35:15.428Z,4.60
2023-03-17T03:37:45.383Z,4.13
2023-03-17T03:40:15.120Z,4.60
2023-03-17T03:42:44.496Z,4.30
2023-03-17T03:45:11.670Z,3.90
2023-03-17T03:47:38.766Z,4.50
2023-03-17T03:50:06.802Z,3.97
2023-03-17T03:52:33.763Z,4.10
2023-03-17T03:55:00.952Z,4.13
2023-03-17T03:57:30.850Z,4.33
2023-03-17T04:00:03.021Z,4.00
2023-03-17T04:02:30.886Z,4.10
2023-03-17T04:05:02.930Z,4.00
2023-03-17T04:07:30.088Z,4.07
2023-03-17T04:09:59.773Z,4.40
2023-03-17T04:12:29.143Z,4.30
2023-03-17T04:14:58.205Z,4.20
2023-03-17T04:17:27.396Z,4.70
2023-03-17T04:19:57.270Z,4.43
2023-03-17T04:22:24.593Z,4.23
2023-03-17T04:24:51.502Z,4.80
2023-03-17T04:27:23.145Z,4.47
2023-03-17T04:29:50.049Z,4.97
2023-03-17T04:32:17.105Z,4.90
2023-03-17T04:34:44.052Z,5.23
2023-03-17T04:37:12.335Z,4.77
2023-03-17T04:39:42.045Z,4.90
2023-03-17T04:42:09.080Z,4.63
2023-03-17T04:44:36.505Z,4.93
2023-03-17T04:47:03.524Z,4.87
2023-03-17T04:49:32.897Z,4.90
2023-03-17T04:52:01.952Z,4.37
2023-03-17T04:54:28.811Z,4.10
2023-03-17T04:56:56.163Z,5.33
2023-03-17T04:59:25.590Z,5.07
2023-03-17T05:01:54.534Z,4.63
2023-03-17T05:04:31.213Z,5.17
2023-03-17T05:06:59.104Z,5.37
2023-03-17T05:09:29.022Z,4.37
2023-03-17T05:11:58.501Z,4.80
2023-03-17T05:14:27.824Z,4.53
2023-03-17T05:16:57.081Z,5.30
2023-03-17T05:19:26.907Z,4.40
2023-03-17T05:21:53.868Z,5.40
2023-03-17T05:24:23.206Z,4.87
2023-03-17T05:26:50.070Z,5.13
2023-03-17T05:29:17.259Z,4.90
2023-03-17T05:31:44.510Z,4.93
2023-03-17T05:34:11.361Z,5.13
2023-03-17T05:36:43.517Z,5.40
2023-03-17T05:39:14.344Z,5.10
2023-03-17T05:41:41.499Z,5.30
2023-03-17T05:44:08.789Z,5.30
2023-03-17T05:46:35.865Z,5.60
2023-03-17T05:49:06.211Z,5.60
2023-03-17T05:51:34.770Z,5.57
2023-03-17T05:54:05.223Z,5.20
2023-03-17T05:56:33.719Z,5.10
2023-03-17T05:59:01.653Z,4.47
2023-03-17T06:01:32.427Z,4.30
2023-03-17T06:04:01.896Z,5.20
2023-03-17T06:06:28.989Z,4.77
2023-03-17T06:08:58.067Z,5.10
2023-03-17T06:11:24.927Z,4.50
2023-03-17T06:13:51.834Z,4.97
2023-03-17T06:16:19.662Z,5.00
2023-03-17T06:18:49.737Z,4.70
2023-03-17T06:21:16.919Z,5.03
2023-03-17T06:23:48.596Z,5.40
2023-03-17T06:26:17.934Z,4.63
2023-03-17T06:28:44.948Z,4.60
2023-03-17T06:31:14.302Z,5.13
2023-03-17T06:33:41.686Z,4.67
2023-03-17T06:36:08.837Z,4.57
2023-03-17T06:38:35.959Z,4.60
2023-03-17T06:41:03.421Z,4.83
2023-03-17T06:43:32.665Z,4.70
2023-03-17T06:45:59.543Z,4.60
2023-03-17T06:48:26.433Z,4.80
2023-03-17T06:50:53.262Z,4.60
2023-03-17T06:53:20.707Z,4.30
2023-03-17T06:55:48.277Z,4.90
2023-03-17T06:58:16.008Z,5.13
2023-03-17T07:00:47.166Z,4.80
2023-03-17T07:03:14.791Z,5.10
2023-03-17T07:05:42.185Z,5.00
2023-03-17T07:08:09.294Z,4.93
2023-03-17T07:10:36.700Z,5.60
2023-03-17T07:13:07.731Z,4.90
2023-03-17T07:15:35.958Z,5.40
2023-03-17T07:18:03.991Z,5.27
2023-03-17T07:20:33.854Z,4.67
2023-03-17T07:23:03.415Z,5.20
2023-03-17T07:25:32.837Z,5.73
2023-03-17T07:27:59.928Z,5.60
2023-03-17T07:30:29.133Z,5.13
2023-03-17T07:32:57.430Z,5.17
2023-03-17T07:35:27.762Z,4.80
2023-03-17T07:37:55.007Z,5.30
2023-03-17T07:40:24.927Z,5.10
2023-03-17T07:42:55.284Z,5.27
2023-03-17T07:45:24.831Z,5.00
2023-03-17T07:47:54.349Z,5.50
2023-03-17T07:50:21.256Z,4.83
2023-03-17T07:52:52.728Z,4.70
2023-03-17T07:55:21.885Z,5.50
2023-03-17T07:57:48.877Z,5.47
2023-03-17T08:00:17.220Z,5.20
2023-03-17T08:02:44.524Z,5.60
2023-03-17T08:05:11.593Z,5.20
2023-03-17T08:07:38.904Z,5.30
2023-03-17T08:10:11.558Z,5.27
2023-03-17T08:12:41.879Z,5.10
2023-03-17T08:15:12.279Z,5.80
2023-03-17T08:17:40.111Z,6.00
2023-03-17T08:20:08.321Z,4.80
2023-03-17T08:22:37.895Z,5.70
2023-03-17T08:25:09.530Z,5.80
2023-03-17T08:27:41.966Z,5.43
2023-03-17T08:30:10.008Z,6.13
2023-03-17T08:32:39.494Z,6.13
2023-03-17T08:35:06.979Z,5.73
2023-03-17T08:37:33.988Z,6.50
2023-03-17T08:40:01.253Z,5.90
2023-03-17T08:42:28.195Z,5.33
2023-03-17T08:44:55.314Z,5.30
2023-03-17T08:47:27.422Z,6.13
2023-03-17T08:49:56.186Z,5.40
2023-03-17T08:52:26.092Z,5.23
2023-03-17T08:54:58.010Z,5.50
2023-03-17T08:57:29.653Z,5.50
2023-03-17T08:59:58.979Z,5.77
2023-03-17T09:02:25.892Z,6.00
2023-03-17T09:04:52.898Z,5.83
2023-03-17T09:07:20.010Z,5.37
2023-03-17T09:09:47.671Z,5.83
2023-03-17T09:12:17.112Z,5.87
2023-03-17T09:14:45.202Z,5.10
2023-03-17T09:17:14.396Z,5.50
2023-03-17T09:19:41.678Z,6.20
2023-03-17T09:22:14.760Z,5.70
2023-03-17T09:24:41.986Z,4.90
2023-03-17T09:27:15.044Z,6.40
2023-03-17T09:29:44.420Z,5.53
2023-03-17T09:32:11.410Z,5.37
2023-03-17T09:34:38.487Z,5.33
2023-03-17T09:37:09.776Z,5.40
2023-03-17T09:39:36.686Z,5.23
2023-03-17T09:42:33.328Z,5.30
2023-03-17T09:45:35.173Z,4.60
2023-03-17T09:48:25.178Z,4.60
2023-03-17T09:50:58.996Z,4.83
2023-03-17T09:53:54.132Z,5.37
2023-03-17T09:56:24.703Z,4.33
2023-03-17T09:58:57.989Z,5.10
2023-03-17T10:01:25.373Z,4.50
2023-03-17T10:03:55.777Z,5.00
2023-03-17T10:06:36.300Z,4.53
2023-03-17T10:09:13.905Z,3.97
2023-03-17T10:11:47.087Z,4.77
2023-03-17T10:14:32.038Z,4.23
2023-03-17T10:17:09.264Z,5.40
2023-03-17T10:19:48.617Z,3.90
2023-03-17T10:22:31.153Z,4.30
2023-03-17T10:25:15.656Z,4.40
2023-03-17T10:27:53.173Z,3.97
2023-03-17T10:30:22.666Z,4.50
2023-03-17T10:32:52.430Z,3.93
2023-03-17T10:35:22.079Z,4.27
2023-03-17T10:37:49.323Z,5.97
2023-03-17T10:40:31.088Z,4.00
2023-03-17T10:43:08.646Z,4.00
2023-03-17T10:45:43.290Z,4.00
2023-03-17T10:48:19.024Z,3.97
2023-03-17T10:50:49.355Z,4.23
2023-03-17T10:53:29.249Z,3.23
2023-03-17T10:56:09.430Z,4.13
2023-03-17T10:58:50.121Z,3.77
2023-03-17T11:01:43.408Z,4.10
2023-03-17T11:04:32.793Z,3.60
2023-03-17T11:07:10.321Z,4.37
2023-03-17T11:09:41.123Z,4.33
2023-03-17T11:12:28.488Z,4.50
2023-03-17T11:15:04.777Z,3.80
2023-03-17T11:17:58.618Z,3.80
2023-03-17T11:20:47.129Z,3.90
2023-03-17T11:23:26.532Z,3.37
2023-03-17T11:26:33.966Z,4.43
2023-03-17T11:29:43.771Z,3.33
2023-03-17T11:32:30.298Z,3.30
2023-03-17T11:35:41.335Z,4.17
2023-03-17T11:38:26.375Z,3.60
2023-03-17T11:41:15.050Z,3.10
2023-03-17T11:44:09.001Z,2.90
2023-03-17T11:46:48.912Z,3.50
2023-03-17T11:49:36.964Z,2.67
2023-03-17T11:52:10.971Z,3.00
2023-03-17T11:54:58.145Z,3.47
2023-03-17T11:57:37.437Z,3.20
2023-03-17T12:00:16.621Z,3.83
2023-03-17T12:03:00.765Z,3.47
2023-03-17T12:05:33.696Z,3.17
2023-03-17T12:08:39.670Z,3.60
2023-03-17T12:11:15.346Z,3.27
2023-03-17T12:13:53.933Z,2.73
2023-03-17T12:16:26.438Z,2.90
2023-03-17T12:19:10.016Z,3.23
2023-03-17T12:21:39.631Z,3.40
2023-03-17T12:24:47.894Z,2.83
2023-03-17T12:27:29.156Z,2.90
2023-03-17T12:30:17.535Z,3.17
2023-03-17T12:32:50.174Z,3.00
2023-03-17T12:35:35.016Z,2.20
2023-03-17T12:38:18.907Z,3.10
2023-03-17T12:40:51.293Z,2.60
2023-03-17T12:43:39.216Z,2.80
2023-03-17T12:46:55.808Z,3.40
2023-03-17T12:49:47.401Z,3.30
2023-03-17T12:53:14.374Z,2.50
2023-03-17T12:55:42.507Z,3.70
2023-03-17T12:58:45.653Z,3.23
2023-03-17T13:01:29.865Z,2.53
2023-03-17T13:04:18.423Z,2.37
2023-03-17T13:07:06.278Z,2.40
2023-03-17T13:09:37.757Z,2.70
2023-03-17T13:12:06.861Z,2.80
2023-03-17T13:14:39.506Z,2.80
2023-03-17T13:17:29.152Z,2.80
2023-03-17T13:20:08.065Z,2.50
2023-03-17T13:22:38.332Z,2.63
2023-03-17T13:25:13.447Z,2.80
2023-03-17T13:27:44.909Z,3.63
2023-03-17T13:30:25.780Z,3.50
2023-03-17T13:33:09.912Z,3.10
2023-03-17T13:36:02.457Z,2.87
2023-03-17T13:38:35.393Z,2.60
2023-03-17T13:41:37.779Z,2.57
2023-03-17T13:44:29.021Z,2.60
2023-03-17T13:47:11.965Z,2.60
2023-03-17T13:49:50.950Z,2.60
2023-03-17T13:52:28.259Z,2.93
2023-03-17T13:55:22.345Z,2.77
2023-03-17T13:58:11.854Z,2.70
2023-03-17T14:00:48.962Z,2.23
2023-03-17T14:03:20.329Z,2.83
2023-03-17T14:05:53.431Z,2.30
2023-03-17T14:08:39.414Z,2.67
2023-03-17T14:11:20.310Z,2.67
2023-03-17T14:14:36.659Z,3.27
2023-03-17T14:17:34.267Z,2.57
2023-03-17T14:20:08.503Z,2.80
2023-03-17T14:22:45.800Z,2.70
2023-03-17T14:25:42.852Z,2.77
2023-03-17T14:28:17.622Z,2.70
2023-03-17T14:31:00.447Z,3.20
2023-03-17T14:33:40.829Z,3.13
2023-03-17T14:36:14.219Z,3.10
2023-03-17T14:38:49.385Z,3.40
2023-03-17T14:41:23.342Z,3.23
2023-03-17T14:43:52.654Z,3.10
2023-03-17T14:46:34.630Z,3.20
2023-03-17T14:49:20.457Z,3.60
2023-03-17T14:51:53.553Z,2.90
2023-03-17T14:54:33.715Z,3.03
2023-03-17T14:57:15.646Z,2.73
2023-03-17T15:00:21.851Z,3.23
2023-03-17T15:03:05.709Z,2.83
2023-03-17T15:05:46.350Z,3.07
2023-03-17T15:08:41.251Z,2.60
2023-03-17T15:11:18.071Z,2.53
2023-03-17T15:13:49.783Z,3.03
2023-03-17T15:16:29.985Z,3.33
2023-03-17T15:19:25.108Z,2.70
2023-03-17T15:21:59.661Z,2.23
2023-03-17T15:24:44.351Z,3.00
2023-03-17T15:27:18.423Z,3.33
2023-03-17T15:29:46.731Z,2.80
2023-03-17T15:32:22.197Z,3.13
2023-03-17T15:34:52.003Z,2.20
2023-03-17T15:37:23.535Z,2.40
2023-03-17T15:39:55.050Z,3.50
2023-03-17T15:42:28.571Z,2.80
2023-03-17T15:44:56.185Z,2.93
2023-03-17T15:47:28.200Z,2.50
2023-03-17T15:50:10.276Z,2.70
2023-03-17T15:52:39.523Z,2.80
2023-03-17T15:55:22.103Z,2.27
2023-03-17T15:57:55.204Z,2.70
2023-03-17T16:00:29.434Z,2.73
2023-03-17T16:03:02.663Z,2.63
2023-03-17T16:05:32.825Z,2.93
2023-03-17T16:08:02.419Z,3.00
2023-03-17T16:10:35.522Z,2.30
2023-03-17T16:13:05.467Z,2.47
2023-03-17T16:15:38.452Z,2.03
2023-03-17T16:18:12.624Z,2.00
2023-03-17T16:20:52.786Z,2.17
2023-03-17T16:23:26.305Z,2.50
2023-03-17T16:25:59.321Z,2.60
2023-03-17T16:28:33.155Z,2.23
2023-03-17T16:31:02.000Z,2.10
2023-03-17T16:33:36.293Z,2.63
2023-03-17T16:36:05.859Z,2.53
2023-03-17T16:38:34.464Z,3.33
2023-03-17T16:41:24.071Z,2.90
2023-03-17T16:44:02.181Z,2.20
2023-03-17T16:46:35.108Z,2.60
2023-03-17T16:49:04.017Z,3.17
2023-03-17T16:51:31.029Z,2.20
2023-03-17T16:53:57.981Z,2.50
2023-03-17T16:56:27.802Z,2.70
2023-03-17T16:58:56.856Z,4.03
2023-03-17T17:01:27.271Z,3.33
2023-03-17T17:03:55.353Z,3.17
2023-03-17T17:06:25.070Z,3.23
2023-03-17T17:08:52.569Z,5.30
2023-03-17T17:11:20.815Z,4.50
2023-03-17T17:13:49.283Z,3.67
2023-03-17T17:16:39.904Z,2.77
2023-03-17T17:19:19.222Z,2.80
2023-03-17T17:21:46.116Z,3.07
2023-03-17T17:24:17.228Z,3.53
2023-03-17T17:26:48.861Z,3.60
2023-03-17T17:29:15.887Z,3.80
2023-03-17T17:31:42.788Z,3.90
2023-03-17T17:34:09.881Z,3.97
2023-03-17T17:36:38.880Z,4.10
2023-03-17T17:39:14.238Z,5.00
2023-03-17T17:41:44.174Z,4.70
2023-03-17T17:44:13.347Z,4.70
2023-03-17T17:46:40.338Z,5.13
2023-03-17T17:49:07.537Z,4.60
2023-03-17T17:51:38.811Z,4.30
2023-03-17T17:54:06.266Z,5.60
2023-03-17T17:56:36.627Z,4.30
2023-03-17T17:59:06.465Z,4.73
2023-03-17T18:01:35.826Z,4.53
2023-03-17T18:04:02.787Z,4.50
2023-03-17T18:06:29.749Z,4.30
2023-03-17T18:08:59.734Z,3.97
2023-03-17T18:11:26.597Z,4.40
2023-03-17T18:13:53.542Z,4.13
2023-03-17T18:16:20.953Z,4.53
2023-03-17T18:18:47.919Z,4.60
2023-03-17T18:21:18.376Z,4.50
2023-03-17T18:23:48.819Z,6.70
2023-03-17T18:26:17.842Z,4.63
2023-03-17T18:28:45.080Z,5.93
2023-03-17T18:31:27.463Z,4.20
2023-03-17T18:34:07.446Z,7.50
2023-03-17T18:36:35.053Z,5.00
2023-03-17T18:39:04.856Z,5.27
2023-03-17T18:41:36.604Z,4.70
2023-03-17T18:44:04.354Z,5.20
2023-03-17T18:46:31.499Z,4.20
2023-03-17T18:48:58.932Z,4.80
2023-03-17T18:51:25.924Z,4.70
2023-03-17T18:53:52.810Z,3.90
2023-03-17T18:56:21.512Z,4.33
2023-03-17T18:58:48.647Z,4.00
2023-03-17T19:01:20.669Z,4.70
2023-03-17T19:03:47.558Z,4.70
2023-03-17T19:06:18.470Z,4.40
2023-03-17T19:08:51.073Z,5.17
2023-03-17T19:11:21.704Z,4.90
2023-03-17T19:13:49.052Z,4.70
2023-03-17T19:16:18.726Z,5.00
2023-03-17T19:18:47.237Z,5.00
2023-03-17T19:21:14.139Z,4.50
2023-03-17T19:23:41.364Z,4.03
2023-03-17T19:26:12.823Z,4.77
2023-03-17T19:28:39.784Z,5.17
2023-03-17T19:31:07.447Z,5.17
2023-03-17T19:33:34.332Z,4.70
2023-03-17T19:36:09.510Z,4.97
2023-03-17T19:38:37.410Z,4.33
2023-03-17T19:41:06.178Z,5.10
2023-03-17T19:43:40.917Z,5.13
2023-03-17T19:46:11.765Z,4.70
2023-03-17T19:48:42.217Z,5.20
2023-03-17T19:51:10.124Z,4.53
2023-03-17T19:53:38.097Z,5.37
2023-03-17T19:56:06.650Z,4.63
2023-03-17T19:58:33.985Z,4.90
2023-03-17T20:01:01.496Z,5.40
2023-03-17T20:03:28.621Z,5.47
2023-03-17T20:05:58.541Z,4.97
2023-03-17T20:08:25.472Z,5.73
2023-03-17T20:10:54.135Z,6.60
2023-03-17T20:13:24.441Z,5.00
2023-03-17T20:15:54.339Z,4.40
2023-03-17T20:18:23.577Z,5.40
2023-03-17T20:21:00.383Z,5.00
2023-03-17T20:23:29.973Z,5.27
2023-03-17T20:26:02.919Z,5.00
2023-03-17T20:28:32.936Z,4.90
2023-03-17T20:31:02.948Z,4.50
2023-03-17T20:33:31.853Z,5.17
2023-03-17T20:35:59.465Z,4.43
2023-03-17T20:38:31.690Z,4.87
2023-03-17T20:41:11.425Z,4.70
2023-03-17T20:43:38.657Z,5.23
2023-03-17T20:46:09.794Z,4.47
2023-03-17T20:48:40.092Z,5.07
2023-03-17T20:51:10.877Z,4.90
2023-03-17T20:53:39.153Z,6.37
2023-03-17T20:56:06.530Z,5.53
2023-03-17T20:58:34.704Z,5.20
2023-03-17T21:01:03.186Z,5.87
2023-03-17T21:03:30.333Z,5.60
2023-03-17T21:05:57.307Z,5.20
2023-03-17T21:08:25.075Z,5.77
2023-03-17T21:10:52.857Z,5.57
2023-03-17T21:13:20.430Z,5.63
2023-03-17T21:15:48.601Z,5.33
2023-03-17T21:18:16.970Z,5.43
2023-03-17T21:20:46.061Z,5.83
2023-03-17T21:23:13.300Z,5.50
2023-03-17T21:25:44.050Z,5.07
2023-03-17T21:28:22.183Z,5.60
2023-03-17T21:30:50.351Z,5.10
2023-03-17T21:33:18.381Z,5.27
2023-03-17T21:35:48.661Z,5.30
2023-03-17T21:38:17.003Z,5.27
2023-03-17T21:40:45.036Z,5.70
2023-03-17T21:43:13.709Z,6.40
2023-03-17T21:45:45.952Z,5.80
2023-03-17T21:48:12.842Z,6.03
2023-03-17T21:50:42.065Z,6.10
2023-03-17T21:53:11.309Z,6.07
2023-03-17T21:55:38.388Z,6.87
2023-03-17T21:58:08.127Z,6.33
2023-03-17T22:00:45.068Z,7.20
2023-03-17T22:03:12.694Z,6.40
2023-03-17T22:05:42.323Z,6.10
2023-03-17T22:08:09.293Z,6.30
2023-03-17T22:10:39.716Z,5.17
2023-03-17T22:13:08.822Z,5.50
2023-03-17T22:15:36.102Z,5.17
2023-03-17T22:18:02.919Z,5.73
2023-03-17T22:20:30.154Z,6.37
2023-03-17T22:22:59.790Z,5.17
2023-03-17T22:25:26.650Z,5.43
2023-03-17T22:27:53.678Z,6.37
2023-03-17T22:30:21.189Z,5.40
2023-03-17T22:32:50.996Z,5.13
2023-03-17T22:35:23.267Z,5.83
2023-03-17T22:37:52.343Z,7.17
2023-03-17T22:40:22.499Z,6.47
2023-03-17T22:42:51.833Z,7.30
2023-03-17T22:45:21.266Z,8.00
2023-03-17T22:47:48.657Z,7.83
2023-03-17T22:50:16.237Z,6.43
2023-03-17T22:52:48.040Z,6.60
2023-03-17T22:55:19.983Z,6.90
2023-03-17T22:57:47.293Z,5.50
2023-03-17T23:00:17.231Z,6.97
2023-03-17T23:02:46.611Z,7.40
2023-03-17T23:05:14.586Z,7.33
2023-03-17T23:07:50.423Z,6.97
2023-03-17T23:10:23.064Z,7.13
2023-03-17T23:12:55.343Z,7.00
2023-03-17T23:15:25.004Z,6.63
2023-03-17T23:17:51.933Z,7.27
2023-03-17T23:20:19.143Z,7.60
2023-03-17T23:22:49.012Z,7.47
2023-03-17T23:25:16.232Z,6.97
2023-03-17T23:27:46.748Z,7.37
2023-03-17T23:30:15.237Z,6.90
2023-03-17T23:32:42.867Z,6.77
2023-03-17T23:35:15.758Z,7.07
2023-03-17T23:37:44.927Z,7.10
2023-03-17T23:40:17.201Z,7.90
2023-03-17T23:42:49.096Z,8.13
2023-03-17T23:45:18.077Z,8.00
2023-03-17T23:47:46.675Z,7.93
2023-03-17T23:50:15.693Z,7.80
2023-03-17T23:52:43.471Z,8.13
2023-03-17T23:55:14.467Z,6.80
2023-03-17T23:57:42.008Z,8.00
